JAT1253 SCEL-SCCI
Flight info
| Callsign | JAT1253 |
|---|---|
| Flight time | 2h 45m |
| Altitude | 35000 |
| Route | LINER6C LINER UQ805 TIGNO UQ803 NEDAX NEDAX3E |
| Aircraft | A320/M-SDE3FGHIRWY/LB1 |
Departure
| Time | 2026-04-19 08:03 |
|---|---|
| Airport | Comodoro Arturo Merino Benítez International Airport (SCEL) |
Arrival
| Time | 2026-04-19 10:48 |
|---|---|
| Airport | President Carlos Ibáñez International Airport (SCCI) |
| Time | Latitude | Longitude | Altitude | Speed | Heading |
|---|---|---|---|---|---|
| 2026-04-19 07:31 | -33.40239 | -70.79580 | 1565 ft | 0 kts | 178° |
| 2026-04-19 07:50 | -33.40228 | -70.79581 | 1564 ft | 3 kts | 178° |
| 2026-04-19 07:51 | -33.40208 | -70.79582 | 1564 ft | 2 kts | 176° |
| 2026-04-19 07:51 | -33.40187 | -70.79586 | 1564 ft | 3 kts | 145° |
| 2026-04-19 07:51 | -33.40174 | -70.79605 | 1564 ft | 3 kts | 97° |
| 2026-04-19 07:51 | -33.40174 | -70.79631 | 1564 ft | 3 kts | 88° |
| 2026-04-19 07:52 | -33.40174 | -70.79659 | 1564 ft | 3 kts | 88° |
| 2026-04-19 07:52 | -33.40174 | -70.79684 | 1564 ft | 3 kts | 120° |
| 2026-04-19 07:52 | -33.40165 | -70.79695 | 1564 ft | 3 kts | 202° |
| 2026-04-19 07:52 | -33.40155 | -70.79681 | 1564 ft | 3 kts | 267° |
| 2026-04-19 07:53 | -33.40154 | -70.79653 | 1564 ft | 3 kts | 267° |
| 2026-04-19 07:53 | -33.40153 | -70.79625 | 1564 ft | 3 kts | 268° |
| 2026-04-19 07:53 | -33.40152 | -70.79600 | 1564 ft | 1 kts | 268° |
| 2026-04-19 07:55 | -33.40152 | -70.79601 | 1564 ft | 0 kts | 268° |
| 2026-04-19 07:55 | -33.40152 | -70.79613 | 1564 ft | 4 kts | 268° |
| 2026-04-19 07:55 | -33.40154 | -70.79660 | 1564 ft | 6 kts | 267° |
| 2026-04-19 07:56 | -33.40156 | -70.79721 | 1564 ft | 8 kts | 267° |
| 2026-04-19 07:56 | -33.40159 | -70.79796 | 1565 ft | 10 kts | 267° |
| 2026-04-19 07:56 | -33.40163 | -70.79886 | 1565 ft | 12 kts | 267° |
| 2026-04-19 07:56 | -33.40154 | -70.79983 | 1566 ft | 12 kts | 306° |
| 2026-04-19 07:57 | -33.40072 | -70.80009 | 1566 ft | 14 kts | 357° |
| 2026-04-19 07:57 | -33.39971 | -70.80017 | 1566 ft | 16 kts | 356° |
| 2026-04-19 07:57 | -33.39857 | -70.80024 | 1566 ft | 17 kts | 358° |
| 2026-04-19 07:57 | -33.39729 | -70.80032 | 1566 ft | 19 kts | 357° |
| 2026-04-19 07:58 | -33.39588 | -70.80039 | 1566 ft | 21 kts | 358° |
| 2026-04-19 07:58 | -33.39435 | -70.80047 | 1566 ft | 23 kts | 357° |
| 2026-04-19 07:58 | -33.39272 | -70.80057 | 1566 ft | 24 kts | 357° |
| 2026-04-19 07:58 | -33.39100 | -70.80066 | 1566 ft | 25 kts | 358° |
| 2026-04-19 07:59 | -33.38951 | -70.80074 | 1567 ft | 20 kts | 357° |
| 2026-04-19 07:59 | -33.38806 | -70.80082 | 1567 ft | 22 kts | 357° |
| 2026-04-19 07:59 | -33.38649 | -70.80091 | 1567 ft | 23 kts | 357° |
| 2026-04-19 07:59 | -33.38482 | -70.80100 | 1567 ft | 25 kts | 357° |
| 2026-04-19 08:00 | -33.38304 | -70.80110 | 1566 ft | 27 kts | 357° |
| 2026-04-19 08:00 | -33.38131 | -70.80120 | 1566 ft | 23 kts | 357° |
| 2026-04-19 08:00 | -33.37968 | -70.80128 | 1567 ft | 24 kts | 358° |
| 2026-04-19 08:00 | -33.37796 | -70.80137 | 1566 ft | 26 kts | 357° |
| 2026-04-19 08:01 | -33.37615 | -70.80147 | 1566 ft | 27 kts | 358° |
| 2026-04-19 08:01 | -33.37433 | -70.80156 | 1566 ft | 18 kts | 357° |
| 2026-04-19 08:01 | -33.37302 | -70.80163 | 1567 ft | 20 kts | 358° |
| 2026-04-19 08:01 | -33.37161 | -70.80176 | 1567 ft | 21 kts | 340° |
| 2026-04-19 08:02 | -33.37110 | -70.80313 | 1573 ft | 18 kts | 251° |
| 2026-04-19 08:02 | -33.37212 | -70.80373 | 1573 ft | 19 kts | 175° |
| 2026-04-19 08:02 | -33.37357 | -70.80365 | 1573 ft | 31 kts | 177° |
| 2026-04-19 08:02 | -33.37802 | -70.80342 | 1572 ft | 95 kts | 178° |
| 2026-04-19 08:03 | -33.38633 | -70.80298 | 1574 ft | 142 kts | 177° |
| 2026-04-19 08:03 | -33.39750 | -70.80239 | 1667 ft | 173 kts | 178° |
| 2026-04-19 08:03 | -33.40919 | -70.80199 | 2328 ft | 165 kts | 178° |
| 2026-04-19 08:03 | -33.42055 | -70.80151 | 3004 ft | 163 kts | 177° |
| 2026-04-19 08:04 | -33.43224 | -70.80080 | 3423 ft | 177 kts | 176° |
| 2026-04-19 08:04 | -33.44496 | -70.79978 | 3811 ft | 188 kts | 176° |
| 2026-04-19 08:04 | -33.45823 | -70.79848 | 4262 ft | 194 kts | 175° |
| 2026-04-19 08:04 | -33.47207 | -70.79733 | 4666 ft | 205 kts | 177° |
| 2026-04-19 08:05 | -33.48676 | -70.79669 | 5024 ft | 218 kts | 178° |
| 2026-04-19 08:05 | -33.50239 | -70.79610 | 5357 ft | 232 kts | 178° |
| 2026-04-19 08:05 | -33.51892 | -70.79541 | 5621 ft | 252 kts | 178° |
| 2026-04-19 08:05 | -33.53723 | -70.79452 | 5933 ft | 275 kts | 177° |
| 2026-04-19 08:06 | -33.55678 | -70.79287 | 6540 ft | 286 kts | 176° |
| 2026-04-19 08:06 | -33.57683 | -70.79073 | 7244 ft | 292 kts | 175° |
| 2026-04-19 08:06 | -33.59722 | -70.78840 | 7971 ft | 297 kts | 175° |
| 2026-04-19 08:06 | -33.61791 | -70.78602 | 8713 ft | 301 kts | 176° |
| 2026-04-19 08:07 | -33.63891 | -70.78361 | 9447 ft | 305 kts | 176° |
| 2026-04-19 08:07 | -33.66024 | -70.78117 | 10146 ft | 310 kts | 176° |
| 2026-04-19 08:07 | -33.68246 | -70.77871 | 10397 ft | 332 kts | 176° |
| 2026-04-19 08:07 | -33.70626 | -70.77617 | 10539 ft | 355 kts | 176° |
| 2026-04-19 08:08 | -33.73160 | -70.77346 | 10671 ft | 376 kts | 176° |
| 2026-04-19 08:08 | -33.75838 | -70.77057 | 10794 ft | 396 kts | 176° |
| 2026-04-19 08:08 | -33.78647 | -70.76752 | 10929 ft | 413 kts | 176° |
| 2026-04-19 08:08 | -33.81544 | -70.76434 | 11310 ft | 422 kts | 176° |
| 2026-04-19 08:09 | -33.84486 | -70.76111 | 11810 ft | 426 kts | 176° |
| 2026-04-19 08:09 | -33.87414 | -70.75792 | 12314 ft | 430 kts | 176° |
| 2026-04-19 08:09 | -33.90414 | -70.75465 | 12823 ft | 434 kts | 177° |
| 2026-04-19 08:09 | -33.93440 | -70.75422 | 13327 ft | 437 kts | 186° |
| 2026-04-19 08:10 | -33.96464 | -70.75870 | 13851 ft | 440 kts | 191° |
| 2026-04-19 08:10 | -33.99505 | -70.76384 | 14303 ft | 443 kts | 191° |
| 2026-04-19 08:10 | -34.02576 | -70.76905 | 14711 ft | 447 kts | 191° |
| 2026-04-19 08:10 | -34.05665 | -70.77426 | 15200 ft | 449 kts | 191° |
| 2026-04-19 08:11 | -34.08766 | -70.77950 | 15678 ft | 451 kts | 191° |
| 2026-04-19 08:11 | -34.11885 | -70.78477 | 16173 ft | 453 kts | 192° |
| 2026-04-19 08:11 | -34.15015 | -70.79009 | 16642 ft | 456 kts | 192° |
| 2026-04-19 08:11 | -34.18167 | -70.79543 | 17101 ft | 458 kts | 192° |
| 2026-04-19 08:12 | -34.21338 | -70.80079 | 17566 ft | 461 kts | 192° |
| 2026-04-19 08:12 | -34.24530 | -70.80619 | 17998 ft | 465 kts | 192° |
| 2026-04-19 08:12 | -34.27706 | -70.81158 | 18410 ft | 468 kts | 193° |
| 2026-04-19 08:12 | -34.30941 | -70.81708 | 18793 ft | 470 kts | 193° |
| 2026-04-19 08:13 | -34.34192 | -70.82262 | 19195 ft | 472 kts | 193° |
| 2026-04-19 08:13 | -34.37458 | -70.82817 | 19595 ft | 474 kts | 193° |
| 2026-04-19 08:13 | -34.40737 | -70.83370 | 20002 ft | 476 kts | 193° |
| 2026-04-19 08:13 | -34.44029 | -70.83926 | 20412 ft | 478 kts | 194° |
| 2026-04-19 08:14 | -34.47328 | -70.84486 | 20788 ft | 480 kts | 194° |
| 2026-04-19 08:14 | -34.53984 | -70.85622 | 21486 ft | 485 kts | 195° |
| 2026-04-19 08:14 | -34.57331 | -70.86193 | 21887 ft | 485 kts | 195° |
| 2026-04-19 08:15 | -34.60669 | -70.86760 | 22404 ft | 483 kts | 195° |
| 2026-04-19 08:15 | -34.63994 | -70.87325 | 22911 ft | 482 kts | 195° |
| 2026-04-19 08:15 | -34.67305 | -70.87889 | 23445 ft | 480 kts | 196° |
| 2026-04-19 08:15 | -34.70608 | -70.88454 | 23791 ft | 479 kts | 196° |
| 2026-04-19 08:16 | -34.73908 | -70.89019 | 24192 ft | 479 kts | 196° |
| 2026-04-19 08:16 | -34.77208 | -70.89584 | 24611 ft | 478 kts | 196° |
| 2026-04-19 08:16 | -34.80453 | -70.90139 | 25049 ft | 476 kts | 196° |
| 2026-04-19 08:16 | -34.83731 | -70.90699 | 25501 ft | 475 kts | 197° |
| 2026-04-19 08:17 | -34.86992 | -70.91255 | 25930 ft | 473 kts | 197° |
| 2026-04-19 08:17 | -34.90251 | -70.91815 | 26413 ft | 472 kts | 197° |
| 2026-04-19 08:17 | -34.93496 | -70.92375 | 26916 ft | 470 kts | 197° |
| 2026-04-19 08:17 | -34.96731 | -70.92930 | 27309 ft | 469 kts | 197° |
| 2026-04-19 08:18 | -34.99960 | -70.93483 | 27781 ft | 468 kts | 197° |
| 2026-04-19 08:18 | -35.03173 | -70.94034 | 28261 ft | 466 kts | 197° |
| 2026-04-19 08:18 | -35.06379 | -70.94586 | 28750 ft | 464 kts | 198° |
| 2026-04-19 08:18 | -35.09571 | -70.95140 | 29249 ft | 463 kts | 198° |
| 2026-04-19 08:19 | -35.12756 | -70.95696 | 29753 ft | 461 kts | 198° |
| 2026-04-19 08:19 | -35.15931 | -70.96250 | 30279 ft | 460 kts | 198° |
| 2026-04-19 08:19 | -35.19092 | -70.96797 | 30708 ft | 458 kts | 198° |
| 2026-04-19 08:19 | -35.22244 | -70.97339 | 31143 ft | 457 kts | 198° |
| 2026-04-19 08:20 | -35.25394 | -70.97882 | 31533 ft | 456 kts | 199° |
| 2026-04-19 08:20 | -35.28488 | -70.98419 | 31888 ft | 455 kts | 199° |
| 2026-04-19 08:20 | -35.31619 | -70.98962 | 32289 ft | 454 kts | 199° |
| 2026-04-19 08:20 | -35.34741 | -70.99505 | 32665 ft | 453 kts | 199° |
| 2026-04-19 08:21 | -35.37859 | -71.00048 | 33002 ft | 452 kts | 199° |
| 2026-04-19 08:21 | -35.40970 | -71.00590 | 33414 ft | 451 kts | 199° |
| 2026-04-19 08:21 | -35.44072 | -71.01129 | 33877 ft | 449 kts | 199° |
| 2026-04-19 08:21 | -35.47161 | -71.01665 | 34307 ft | 448 kts | 199° |
| 2026-04-19 08:22 | -35.50245 | -71.02205 | 34567 ft | 448 kts | 200° |
| 2026-04-19 08:22 | -35.53328 | -71.02748 | 34875 ft | 448 kts | 200° |
| 2026-04-19 08:22 | -35.56414 | -71.03290 | 35022 ft | 449 kts | 200° |
| 2026-04-19 08:22 | -35.59517 | -71.03837 | 35045 ft | 453 kts | 200° |
| 2026-04-19 08:23 | -35.65860 | -71.04970 | 35041 ft | 467 kts | 199° |
| 2026-04-19 08:23 | -35.72368 | -71.06110 | 35067 ft | 475 kts | 199° |
| 2026-04-19 08:24 | -35.78876 | -71.07241 | 35043 ft | 476 kts | 199° |
| 2026-04-19 08:24 | -35.85437 | -71.08393 | 35047 ft | 476 kts | 199° |
| 2026-04-19 08:25 | -35.91995 | -71.09537 | 35041 ft | 476 kts | 199° |
| 2026-04-19 08:25 | -35.98554 | -71.10700 | 35069 ft | 476 kts | 199° |
| 2026-04-19 08:26 | -36.05103 | -71.11861 | 35055 ft | 476 kts | 199° |
| 2026-04-19 08:26 | -36.11663 | -71.13024 | 35045 ft | 476 kts | 199° |
| 2026-04-19 08:27 | -36.18212 | -71.14189 | 35038 ft | 476 kts | 199° |
| 2026-04-19 08:27 | -36.24773 | -71.15350 | 35057 ft | 477 kts | 199° |
| 2026-04-19 08:28 | -36.31339 | -71.16521 | 35045 ft | 477 kts | 200° |
| 2026-04-19 08:28 | -36.37849 | -71.17683 | 35047 ft | 476 kts | 199° |
| 2026-04-19 08:29 | -36.44416 | -71.18853 | 35066 ft | 476 kts | 200° |
| 2026-04-19 08:29 | -36.50993 | -71.20028 | 35053 ft | 478 kts | 200° |
| 2026-04-19 08:30 | -36.56466 | -71.21013 | 35047 ft | 478 kts | 200° |
| 2026-04-19 08:30 | -36.63055 | -71.22197 | 35044 ft | 478 kts | 200° |
| 2026-04-19 08:31 | -36.69646 | -71.23384 | 35070 ft | 479 kts | 199° |
| 2026-04-19 08:31 | -36.76236 | -71.24575 | 35051 ft | 478 kts | 199° |
| 2026-04-19 08:32 | -36.82828 | -71.25764 | 35037 ft | 478 kts | 199° |
| 2026-04-19 08:32 | -36.89383 | -71.26941 | 35036 ft | 479 kts | 199° |
| 2026-04-19 08:33 | -36.95974 | -71.28136 | 35059 ft | 479 kts | 199° |
| 2026-04-19 08:33 | -37.02570 | -71.29346 | 35054 ft | 479 kts | 199° |
| 2026-04-19 08:34 | -37.09174 | -71.30549 | 35048 ft | 479 kts | 199° |
| 2026-04-19 08:34 | -37.15778 | -71.31745 | 35058 ft | 480 kts | 199° |
| 2026-04-19 08:35 | -37.22378 | -71.32941 | 35061 ft | 479 kts | 198° |
| 2026-04-19 08:35 | -37.28980 | -71.34146 | 35049 ft | 479 kts | 198° |
| 2026-04-19 08:36 | -37.35582 | -71.35356 | 35051 ft | 479 kts | 199° |
| 2026-04-19 08:36 | -37.42190 | -71.36572 | 35053 ft | 480 kts | 198° |
| 2026-04-19 08:37 | -37.48792 | -71.37788 | 35050 ft | 479 kts | 198° |
| 2026-04-19 08:37 | -37.55348 | -71.38998 | 35057 ft | 480 kts | 198° |
| 2026-04-19 08:38 | -37.61959 | -71.40215 | 35066 ft | 480 kts | 198° |
| 2026-04-19 08:38 | -37.68568 | -71.41434 | 35089 ft | 480 kts | 198° |
| 2026-04-19 08:39 | -37.75172 | -71.42662 | 35082 ft | 479 kts | 198° |
| 2026-04-19 08:39 | -37.81774 | -71.43890 | 35085 ft | 480 kts | 198° |
| 2026-04-19 08:40 | -37.88380 | -71.45113 | 35105 ft | 479 kts | 198° |
| 2026-04-19 08:40 | -37.94985 | -71.46334 | 35097 ft | 480 kts | 198° |
| 2026-04-19 08:41 | -38.01579 | -71.47562 | 35088 ft | 479 kts | 198° |
| 2026-04-19 08:41 | -38.08183 | -71.48798 | 35081 ft | 480 kts | 198° |
| 2026-04-19 08:42 | -38.14791 | -71.50041 | 35098 ft | 480 kts | 198° |
| 2026-04-19 08:42 | -38.21361 | -71.51276 | 35096 ft | 481 kts | 197° |
| 2026-04-19 08:43 | -38.27976 | -71.52513 | 35097 ft | 480 kts | 197° |
| 2026-04-19 08:43 | -38.34593 | -71.53752 | 35128 ft | 481 kts | 197° |
| 2026-04-19 08:44 | -38.41214 | -71.54999 | 35126 ft | 481 kts | 197° |
| 2026-04-19 08:44 | -38.47837 | -71.56255 | 35154 ft | 480 kts | 198° |
| 2026-04-19 08:45 | -38.54447 | -71.57514 | 35151 ft | 480 kts | 198° |
| 2026-04-19 08:45 | -38.61011 | -71.58753 | 35134 ft | 478 kts | 198° |
| 2026-04-19 08:46 | -38.67605 | -71.60004 | 35140 ft | 479 kts | 198° |
| 2026-04-19 08:46 | -38.74209 | -71.61253 | 35145 ft | 479 kts | 198° |
| 2026-04-19 08:47 | -38.80806 | -71.62520 | 35169 ft | 479 kts | 198° |
| 2026-04-19 08:47 | -38.87404 | -71.63780 | 35156 ft | 479 kts | 198° |
| 2026-04-19 08:48 | -38.93996 | -71.65038 | 35154 ft | 479 kts | 198° |
| 2026-04-19 08:48 | -39.00549 | -71.66295 | 35155 ft | 479 kts | 198° |
| 2026-04-19 08:49 | -39.07156 | -71.67563 | 35186 ft | 480 kts | 198° |
| 2026-04-19 08:49 | -39.13757 | -71.68839 | 35174 ft | 480 kts | 198° |
| 2026-04-19 08:50 | -39.20357 | -71.70118 | 35162 ft | 479 kts | 198° |
| 2026-04-19 08:50 | -39.26956 | -71.71392 | 35181 ft | 479 kts | 198° |
| 2026-04-19 08:51 | -39.33558 | -71.72669 | 35169 ft | 480 kts | 198° |
| 2026-04-19 08:51 | -39.40161 | -71.73946 | 35158 ft | 480 kts | 198° |
| 2026-04-19 08:52 | -39.46765 | -71.75228 | 35187 ft | 480 kts | 198° |
| 2026-04-19 08:52 | -39.53331 | -71.76511 | 35174 ft | 480 kts | 198° |
| 2026-04-19 08:53 | -39.59935 | -71.77805 | 35162 ft | 480 kts | 198° |
| 2026-04-19 08:53 | -39.66551 | -71.79090 | 35143 ft | 480 kts | 198° |
| 2026-04-19 08:54 | -39.73160 | -71.80377 | 35139 ft | 481 kts | 198° |
| 2026-04-19 08:54 | -39.79781 | -71.81676 | 35138 ft | 480 kts | 198° |
| 2026-04-19 08:55 | -39.86390 | -71.82981 | 35131 ft | 480 kts | 198° |
| 2026-04-19 08:55 | -39.92995 | -71.84284 | 35163 ft | 480 kts | 198° |
| 2026-04-19 08:56 | -39.99560 | -71.85578 | 35154 ft | 480 kts | 198° |
| 2026-04-19 08:56 | -40.06168 | -71.86880 | 35148 ft | 480 kts | 198° |
| 2026-04-19 08:57 | -40.12775 | -71.88188 | 35181 ft | 480 kts | 198° |
| 2026-04-19 08:57 | -40.19386 | -71.89504 | 35164 ft | 481 kts | 198° |
| 2026-04-19 08:58 | -40.25993 | -71.90822 | 35148 ft | 480 kts | 198° |
| 2026-04-19 08:58 | -40.32605 | -71.92134 | 35158 ft | 481 kts | 198° |
| 2026-04-19 08:59 | -40.39230 | -71.93456 | 35150 ft | 481 kts | 198° |
| 2026-04-19 08:59 | -40.45856 | -71.94783 | 35144 ft | 482 kts | 199° |
| 2026-04-19 09:00 | -40.52447 | -71.96109 | 35137 ft | 482 kts | 198° |
| 2026-04-19 09:00 | -40.59076 | -71.97444 | 35161 ft | 482 kts | 199° |
| 2026-04-19 09:01 | -40.65721 | -71.98772 | 35162 ft | 483 kts | 199° |
| 2026-04-19 09:01 | -40.72356 | -72.00106 | 35158 ft | 483 kts | 199° |
| 2026-04-19 09:02 | -40.78995 | -72.01452 | 35181 ft | 482 kts | 199° |
| 2026-04-19 09:02 | -40.85634 | -72.02802 | 35159 ft | 483 kts | 199° |
| 2026-04-19 09:03 | -40.92279 | -72.04157 | 35145 ft | 483 kts | 199° |
| 2026-04-19 09:03 | -40.98919 | -72.05504 | 35170 ft | 483 kts | 199° |
| 2026-04-19 09:04 | -41.05524 | -72.06840 | 35154 ft | 483 kts | 198° |
| 2026-04-19 09:04 | -41.12173 | -72.08190 | 35138 ft | 483 kts | 199° |
| 2026-04-19 09:05 | -41.18831 | -72.09562 | 35146 ft | 484 kts | 199° |
| 2026-04-19 09:05 | -41.25484 | -72.10933 | 35164 ft | 484 kts | 198° |
| 2026-04-19 09:06 | -41.32149 | -72.12219 | 35152 ft | 485 kts | 197° |
| 2026-04-19 09:06 | -41.38874 | -72.13238 | 35150 ft | 488 kts | 195° |
| 2026-04-19 09:07 | -41.45583 | -72.14184 | 35177 ft | 488 kts | 195° |
| 2026-04-19 09:07 | -41.52316 | -72.15205 | 35154 ft | 487 kts | 196° |
| 2026-04-19 09:08 | -41.59031 | -72.16278 | 35142 ft | 486 kts | 196° |
| 2026-04-19 09:08 | -41.65765 | -72.17343 | 35170 ft | 487 kts | 196° |
| 2026-04-19 09:09 | -41.72493 | -72.18388 | 35168 ft | 487 kts | 196° |
| 2026-04-19 09:09 | -41.79221 | -72.19447 | 35166 ft | 487 kts | 196° |
| 2026-04-19 09:10 | -41.85942 | -72.20504 | 35157 ft | 486 kts | 196° |
| 2026-04-19 09:10 | -41.92661 | -72.21572 | 35151 ft | 486 kts | 196° |
| 2026-04-19 09:11 | -41.99378 | -72.22632 | 35156 ft | 486 kts | 196° |
| 2026-04-19 09:11 | -42.06101 | -72.23692 | 35182 ft | 486 kts | 196° |
| 2026-04-19 09:12 | -42.12772 | -72.24759 | 35167 ft | 485 kts | 196° |
| 2026-04-19 09:12 | -42.19471 | -72.25829 | 35190 ft | 485 kts | 196° |
| 2026-04-19 09:13 | -42.26180 | -72.26909 | 35182 ft | 486 kts | 195° |
| 2026-04-19 09:13 | -42.32895 | -72.27962 | 35173 ft | 486 kts | 195° |
| 2026-04-19 09:14 | -42.39619 | -72.29019 | 35162 ft | 485 kts | 195° |
| 2026-04-19 09:14 | -42.46329 | -72.30109 | 35182 ft | 486 kts | 195° |
| 2026-04-19 09:15 | -42.53048 | -72.31199 | 35185 ft | 486 kts | 195° |
| 2026-04-19 09:16 | -42.63069 | -72.32797 | 35180 ft | 485 kts | 195° |
| 2026-04-19 09:16 | -42.69772 | -72.33887 | 35197 ft | 485 kts | 195° |
| 2026-04-19 09:17 | -42.76466 | -72.34978 | 35188 ft | 484 kts | 195° |
| 2026-04-19 09:17 | -42.83151 | -72.36069 | 35177 ft | 483 kts | 195° |
| 2026-04-19 09:18 | -42.89842 | -72.37150 | 35199 ft | 484 kts | 195° |
| 2026-04-19 09:18 | -42.96528 | -72.38236 | 35188 ft | 484 kts | 195° |
| 2026-04-19 09:19 | -43.03202 | -72.39339 | 35175 ft | 483 kts | 195° |
| 2026-04-19 09:19 | -43.09873 | -72.40440 | 35193 ft | 483 kts | 194° |
| 2026-04-19 09:20 | -43.16548 | -72.41538 | 35189 ft | 483 kts | 194° |
| 2026-04-19 09:20 | -43.23216 | -72.42630 | 35182 ft | 482 kts | 194° |
| 2026-04-19 09:21 | -43.29840 | -72.43715 | 35187 ft | 482 kts | 194° |
| 2026-04-19 09:21 | -43.36507 | -72.44812 | 35182 ft | 482 kts | 194° |
| 2026-04-19 09:22 | -43.43173 | -72.45922 | 35180 ft | 483 kts | 194° |
| 2026-04-19 09:22 | -43.49837 | -72.47029 | 35204 ft | 482 kts | 194° |
| 2026-04-19 09:23 | -43.56490 | -72.48135 | 35189 ft | 481 kts | 194° |
| 2026-04-19 09:23 | -43.63136 | -72.49253 | 35186 ft | 481 kts | 194° |
| 2026-04-19 09:24 | -43.68662 | -72.50187 | 35184 ft | 481 kts | 194° |
| 2026-04-19 09:24 | -43.75309 | -72.51302 | 35184 ft | 481 kts | 194° |
| 2026-04-19 09:25 | -43.81954 | -72.52411 | 35186 ft | 481 kts | 194° |
| 2026-04-19 09:25 | -43.89671 | -72.53701 | 35194 ft | 480 kts | 193° |
| 2026-04-19 09:26 | -43.95226 | -72.54635 | 35190 ft | 480 kts | 194° |
| 2026-04-19 09:26 | -44.01850 | -72.55760 | 35186 ft | 479 kts | 194° |
| 2026-04-19 09:27 | -44.08428 | -72.56873 | 35196 ft | 479 kts | 193° |
| 2026-04-19 09:27 | -44.15048 | -72.57998 | 35177 ft | 479 kts | 193° |
| 2026-04-19 09:28 | -44.21659 | -72.59120 | 35169 ft | 478 kts | 193° |
| 2026-04-19 09:28 | -44.28270 | -72.60242 | 35191 ft | 478 kts | 193° |
| 2026-04-19 09:29 | -44.34871 | -72.61373 | 35180 ft | 478 kts | 193° |
| 2026-04-19 09:29 | -44.41466 | -72.62505 | 35170 ft | 477 kts | 193° |
| 2026-04-19 09:30 | -44.48054 | -72.63629 | 35174 ft | 477 kts | 193° |
| 2026-04-19 09:30 | -44.54633 | -72.64758 | 35167 ft | 476 kts | 193° |
| 2026-04-19 09:31 | -44.61168 | -72.65888 | 35159 ft | 476 kts | 193° |
| 2026-04-19 09:31 | -44.67754 | -72.67027 | 35173 ft | 476 kts | 193° |
| 2026-04-19 09:32 | -44.74321 | -72.68161 | 35163 ft | 475 kts | 193° |
| 2026-04-19 09:32 | -44.80895 | -72.69307 | 35161 ft | 475 kts | 192° |
| 2026-04-19 09:33 | -44.87454 | -72.70438 | 35172 ft | 474 kts | 192° |
| 2026-04-19 09:33 | -44.93995 | -72.71576 | 35155 ft | 473 kts | 192° |
| 2026-04-19 09:34 | -45.00533 | -72.72724 | 35153 ft | 473 kts | 192° |
| 2026-04-19 09:34 | -45.07017 | -72.73855 | 35161 ft | 473 kts | 192° |
| 2026-04-19 09:35 | -45.13545 | -72.74999 | 35145 ft | 472 kts | 192° |
| 2026-04-19 09:35 | -45.20063 | -72.76146 | 35137 ft | 472 kts | 192° |
| 2026-04-19 09:36 | -45.26578 | -72.77301 | 35141 ft | 472 kts | 192° |
| 2026-04-19 09:36 | -45.33092 | -72.78458 | 35145 ft | 471 kts | 192° |
| 2026-04-19 09:37 | -45.39599 | -72.79611 | 35140 ft | 471 kts | 192° |
| 2026-04-19 09:37 | -45.46094 | -72.80760 | 35129 ft | 470 kts | 192° |
| 2026-04-19 09:38 | -45.52582 | -72.81915 | 35130 ft | 470 kts | 192° |
| 2026-04-19 09:38 | -45.59063 | -72.83070 | 35127 ft | 469 kts | 192° |
| 2026-04-19 09:39 | -45.65543 | -72.84228 | 35127 ft | 469 kts | 192° |
| 2026-04-19 09:39 | -45.72029 | -72.85388 | 35143 ft | 469 kts | 192° |
| 2026-04-19 09:40 | -45.78472 | -72.86540 | 35139 ft | 469 kts | 192° |
| 2026-04-19 09:40 | -45.84947 | -72.87703 | 35134 ft | 469 kts | 191° |
| 2026-04-19 09:41 | -45.91422 | -72.88867 | 35145 ft | 468 kts | 191° |
| 2026-04-19 09:41 | -45.97894 | -72.90040 | 35138 ft | 468 kts | 192° |
| 2026-04-19 09:42 | -46.04361 | -72.91220 | 35132 ft | 468 kts | 192° |
| 2026-04-19 09:42 | -46.10826 | -72.92396 | 35140 ft | 468 kts | 192° |
| 2026-04-19 09:43 | -46.17290 | -72.93570 | 35136 ft | 468 kts | 192° |
| 2026-04-19 09:43 | -46.23747 | -72.94749 | 35122 ft | 468 kts | 192° |
| 2026-04-19 09:44 | -46.30156 | -72.95929 | 35113 ft | 467 kts | 192° |
| 2026-04-19 09:44 | -46.36617 | -72.97119 | 35123 ft | 467 kts | 191° |
| 2026-04-19 09:45 | -46.43064 | -72.98301 | 35117 ft | 467 kts | 191° |
| 2026-04-19 09:45 | -46.49506 | -72.99478 | 35104 ft | 466 kts | 191° |
| 2026-04-19 09:46 | -46.55941 | -73.00663 | 35113 ft | 466 kts | 191° |
| 2026-04-19 09:46 | -46.62375 | -73.01858 | 35101 ft | 466 kts | 192° |
| 2026-04-19 09:47 | -46.68802 | -73.03052 | 35097 ft | 466 kts | 192° |
| 2026-04-19 09:47 | -46.75190 | -73.04234 | 35104 ft | 466 kts | 192° |
| 2026-04-19 09:48 | -46.81614 | -73.05431 | 35093 ft | 465 kts | 192° |
| 2026-04-19 09:48 | -46.88032 | -73.06644 | 35083 ft | 465 kts | 191° |
| 2026-04-19 09:49 | -46.94448 | -73.07853 | 35093 ft | 464 kts | 191° |
| 2026-04-19 09:49 | -47.00866 | -73.09056 | 35089 ft | 464 kts | 191° |
| 2026-04-19 09:50 | -47.07230 | -73.10256 | 35076 ft | 464 kts | 191° |
| 2026-04-19 09:50 | -47.13638 | -73.11461 | 35072 ft | 464 kts | 191° |
| 2026-04-19 09:51 | -47.20038 | -73.12677 | 35083 ft | 464 kts | 191° |
| 2026-04-19 09:51 | -47.26439 | -73.13900 | 35069 ft | 464 kts | 191° |
| 2026-04-19 09:52 | -47.32842 | -73.15118 | 35066 ft | 464 kts | 191° |
| 2026-04-19 09:52 | -47.39242 | -73.16344 | 35067 ft | 464 kts | 191° |
| 2026-04-19 09:53 | -47.45632 | -73.17569 | 35071 ft | 463 kts | 191° |
| 2026-04-19 09:53 | -47.52025 | -73.18798 | 35061 ft | 463 kts | 191° |
| 2026-04-19 09:54 | -47.58414 | -73.20025 | 35053 ft | 463 kts | 191° |
| 2026-04-19 09:54 | -47.64759 | -73.21259 | 35051 ft | 463 kts | 191° |
| 2026-04-19 09:55 | -47.71141 | -73.22499 | 35048 ft | 463 kts | 191° |
| 2026-04-19 09:55 | -47.77530 | -73.23735 | 35050 ft | 463 kts | 191° |
| 2026-04-19 09:56 | -47.83911 | -73.24970 | 35043 ft | 462 kts | 191° |
| 2026-04-19 09:56 | -47.90300 | -73.26217 | 35051 ft | 462 kts | 191° |
| 2026-04-19 09:57 | -47.96680 | -73.27461 | 35045 ft | 462 kts | 191° |
| 2026-04-19 09:57 | -48.03014 | -73.28686 | 35035 ft | 462 kts | 191° |
| 2026-04-19 09:58 | -48.09388 | -73.29943 | 35045 ft | 462 kts | 192° |
| 2026-04-19 09:58 | -48.15764 | -73.31211 | 35033 ft | 462 kts | 192° |
| 2026-04-19 09:59 | -48.22136 | -73.32470 | 35030 ft | 462 kts | 191° |
| 2026-04-19 09:59 | -48.28518 | -73.33726 | 35029 ft | 462 kts | 191° |
| 2026-04-19 10:00 | -48.34894 | -73.34993 | 35033 ft | 462 kts | 192° |
| 2026-04-19 10:00 | -48.41269 | -73.36257 | 35026 ft | 462 kts | 192° |
| 2026-04-19 10:01 | -48.47653 | -73.37522 | 35021 ft | 463 kts | 192° |
| 2026-04-19 10:01 | -48.54028 | -73.38801 | 35039 ft | 462 kts | 192° |
| 2026-04-19 10:02 | -48.60351 | -73.40070 | 35030 ft | 461 kts | 192° |
| 2026-04-19 10:02 | -48.66715 | -73.41352 | 35022 ft | 461 kts | 192° |
| 2026-04-19 10:03 | -48.73069 | -73.42635 | 35014 ft | 461 kts | 192° |
| 2026-04-19 10:03 | -48.79421 | -73.43905 | 35018 ft | 461 kts | 192° |
| 2026-04-19 10:04 | -48.85776 | -73.45181 | 35007 ft | 460 kts | 192° |
| 2026-04-19 10:04 | -48.92125 | -73.46476 | 34997 ft | 460 kts | 192° |
| 2026-04-19 10:05 | -48.98473 | -73.47768 | 34995 ft | 460 kts | 192° |
| 2026-04-19 10:05 | -49.04823 | -73.49063 | 34990 ft | 460 kts | 191° |
| 2026-04-19 10:06 | -49.11162 | -73.50362 | 34986 ft | 460 kts | 191° |
| 2026-04-19 10:06 | -49.17465 | -73.51658 | 34982 ft | 460 kts | 191° |
| 2026-04-19 10:07 | -49.23813 | -73.52965 | 34992 ft | 460 kts | 191° |
| 2026-04-19 10:07 | -49.30157 | -73.54264 | 34983 ft | 460 kts | 192° |
| 2026-04-19 10:08 | -49.36492 | -73.55572 | 34964 ft | 459 kts | 193° |
| 2026-04-19 10:08 | -49.42825 | -73.56881 | 34961 ft | 459 kts | 193° |
| 2026-04-19 10:09 | -49.49167 | -73.58195 | 34992 ft | 459 kts | 192° |
| 2026-04-19 10:09 | -49.55510 | -73.59519 | 34962 ft | 460 kts | 192° |
| 2026-04-19 10:10 | -49.61853 | -73.60857 | 34943 ft | 460 kts | 192° |
| 2026-04-19 10:10 | -49.68207 | -73.62187 | 34932 ft | 461 kts | 191° |
| 2026-04-19 10:11 | -49.74529 | -73.63497 | 34934 ft | 462 kts | 191° |
| 2026-04-19 10:11 | -49.80899 | -73.64829 | 34917 ft | 462 kts | 192° |
| 2026-04-19 10:12 | -49.87277 | -73.66182 | 34914 ft | 462 kts | 192° |
| 2026-04-19 10:12 | -49.93653 | -73.67537 | 34909 ft | 463 kts | 192° |
| 2026-04-19 10:13 | -50.00040 | -73.68886 | 34902 ft | 463 kts | 192° |
| 2026-04-19 10:13 | -50.06416 | -73.70238 | 34896 ft | 463 kts | 192° |
| 2026-04-19 10:14 | -50.12794 | -73.71606 | 34904 ft | 463 kts | 192° |
| 2026-04-19 10:14 | -50.19135 | -73.72965 | 34919 ft | 463 kts | 192° |
| 2026-04-19 10:15 | -50.25513 | -73.74338 | 34926 ft | 463 kts | 192° |
| 2026-04-19 10:15 | -50.31913 | -73.75560 | 34913 ft | 465 kts | 186° |
| 2026-04-19 10:16 | -50.38365 | -73.74209 | 34892 ft | 475 kts | 166° |
| 2026-04-19 10:16 | -50.41434 | -73.72218 | 34888 ft | 480 kts | 155° |
| 2026-04-19 10:16 | -50.44322 | -73.69572 | 34903 ft | 482 kts | 152° |
| 2026-04-19 10:17 | -50.50084 | -73.64170 | 34884 ft | 482 kts | 153° |
| 2026-04-19 10:17 | -50.55855 | -73.58777 | 34871 ft | 483 kts | 153° |
| 2026-04-19 10:18 | -50.61625 | -73.53373 | 34867 ft | 483 kts | 152° |
| 2026-04-19 10:18 | -50.67363 | -73.47974 | 34868 ft | 484 kts | 152° |
| 2026-04-19 10:19 | -50.76034 | -73.39757 | 34851 ft | 485 kts | 152° |
| 2026-04-19 10:19 | -50.81817 | -73.34268 | 34839 ft | 485 kts | 152° |
| 2026-04-19 10:20 | -50.87609 | -73.28751 | 34856 ft | 486 kts | 152° |
| 2026-04-19 10:20 | -50.92435 | -73.24142 | 34839 ft | 487 kts | 152° |
| 2026-04-19 10:21 | -50.98238 | -73.18592 | 34825 ft | 488 kts | 152° |
| 2026-04-19 10:21 | -51.04047 | -73.13023 | 34827 ft | 488 kts | 152° |
| 2026-04-19 10:22 | -51.09857 | -73.07421 | 34836 ft | 488 kts | 152° |
| 2026-04-19 10:22 | -51.15682 | -73.01802 | 34822 ft | 489 kts | 152° |
| 2026-04-19 10:23 | -51.21459 | -72.96200 | 34817 ft | 489 kts | 152° |
| 2026-04-19 10:23 | -51.27268 | -72.90534 | 34836 ft | 490 kts | 152° |
| 2026-04-19 10:24 | -51.33084 | -72.84844 | 34825 ft | 490 kts | 152° |
| 2026-04-19 10:24 | -51.38897 | -72.79141 | 34822 ft | 490 kts | 152° |
| 2026-04-19 10:25 | -51.44708 | -72.73422 | 34820 ft | 491 kts | 152° |
| 2026-04-19 10:25 | -51.50525 | -72.67679 | 34841 ft | 491 kts | 152° |
| 2026-04-19 10:26 | -51.56330 | -72.61933 | 34835 ft | 490 kts | 152° |
| 2026-04-19 10:26 | -51.62132 | -72.56168 | 34828 ft | 490 kts | 152° |
| 2026-04-19 10:27 | -51.67923 | -72.50398 | 34812 ft | 489 kts | 152° |
| 2026-04-19 10:27 | -51.73697 | -72.44563 | 34815 ft | 491 kts | 148° |
| 2026-04-19 10:28 | -51.79138 | -72.37999 | 34816 ft | 492 kts | 147° |
| 2026-04-19 10:28 | -51.84601 | -72.31332 | 34806 ft | 492 kts | 147° |
| 2026-04-19 10:29 | -51.90066 | -72.24669 | 34804 ft | 492 kts | 147° |
| 2026-04-19 10:29 | -51.95522 | -72.17979 | 34558 ft | 491 kts | 146° |
| 2026-04-19 10:30 | -51.98248 | -72.14630 | 33831 ft | 495 kts | 146° |
| 2026-04-19 10:30 | -52.01016 | -72.11234 | 32872 ft | 499 kts | 146° |
| 2026-04-19 10:30 | -52.03769 | -72.07840 | 32170 ft | 496 kts | 147° |
| 2026-04-19 10:30 | -52.06526 | -72.04434 | 31244 ft | 499 kts | 147° |
| 2026-04-19 10:31 | -52.09256 | -72.01021 | 30352 ft | 502 kts | 146° |
| 2026-04-19 10:31 | -52.11953 | -71.97455 | 28825 ft | 499 kts | 144° |
| 2026-04-19 10:31 | -52.14584 | -71.93769 | 27380 ft | 496 kts | 142° |
| 2026-04-19 10:31 | -52.17118 | -71.90074 | 26300 ft | 485 kts | 141° |
| 2026-04-19 10:32 | -52.19636 | -71.86364 | 24999 ft | 492 kts | 141° |
| 2026-04-19 10:32 | -52.22195 | -71.82623 | 23805 ft | 496 kts | 141° |
| 2026-04-19 10:32 | -52.24785 | -71.78891 | 22735 ft | 494 kts | 142° |
| 2026-04-19 10:32 | -52.27343 | -71.75247 | 22017 ft | 483 kts | 142° |
| 2026-04-19 10:33 | -52.29864 | -71.71675 | 21087 ft | 476 kts | 142° |
| 2026-04-19 10:33 | -52.32354 | -71.68155 | 20175 ft | 470 kts | 142° |
| 2026-04-19 10:33 | -52.34811 | -71.64672 | 19340 ft | 464 kts | 142° |
| 2026-04-19 10:33 | -52.37229 | -71.61231 | 18534 ft | 458 kts | 141° |
| 2026-04-19 10:34 | -52.39614 | -71.57824 | 17686 ft | 452 kts | 141° |
| 2026-04-19 10:34 | -52.41965 | -71.54459 | 16792 ft | 444 kts | 141° |
| 2026-04-19 10:34 | -52.44223 | -71.51213 | 15459 ft | 432 kts | 141° |
| 2026-04-19 10:34 | -52.46439 | -71.48017 | 14605 ft | 417 kts | 141° |
| 2026-04-19 10:35 | -52.48608 | -71.44887 | 13851 ft | 414 kts | 142° |
| 2026-04-19 10:35 | -52.50767 | -71.41777 | 13059 ft | 412 kts | 142° |
| 2026-04-19 10:35 | -52.52906 | -71.38695 | 12372 ft | 406 kts | 142° |
| 2026-04-19 10:35 | -52.55017 | -71.35649 | 11661 ft | 401 kts | 142° |
| 2026-04-19 10:36 | -52.57097 | -71.32645 | 11071 ft | 393 kts | 142° |
| 2026-04-19 10:36 | -52.59096 | -71.29741 | 10935 ft | 374 kts | 142° |
| 2026-04-19 10:36 | -52.60993 | -71.26970 | 10802 ft | 356 kts | 143° |
| 2026-04-19 10:36 | -52.62801 | -71.24324 | 10678 ft | 341 kts | 143° |
| 2026-04-19 10:37 | -52.64538 | -71.21785 | 10545 ft | 328 kts | 143° |
| 2026-04-19 10:37 | -52.66214 | -71.19345 | 10413 ft | 316 kts | 143° |
| 2026-04-19 10:37 | -52.67832 | -71.16986 | 10296 ft | 306 kts | 144° |
| 2026-04-19 10:37 | -52.69408 | -71.14687 | 10048 ft | 300 kts | 144° |
| 2026-04-19 10:38 | -52.70955 | -71.12435 | 9878 ft | 293 kts | 144° |
| 2026-04-19 10:38 | -52.72482 | -71.10213 | 9745 ft | 292 kts | 144° |
| 2026-04-19 10:38 | -52.74007 | -71.07992 | 9634 ft | 293 kts | 144° |
| 2026-04-19 10:38 | -52.75533 | -71.05767 | 9505 ft | 292 kts | 143° |
| 2026-04-19 10:39 | -52.77057 | -71.03538 | 9127 ft | 295 kts | 143° |
| 2026-04-19 10:39 | -52.78570 | -71.01315 | 8783 ft | 293 kts | 143° |
| 2026-04-19 10:39 | -52.80097 | -70.99059 | 8329 ft | 294 kts | 143° |
| 2026-04-19 10:39 | -52.81605 | -70.96827 | 7848 ft | 289 kts | 143° |
| 2026-04-19 10:40 | -52.83100 | -70.94618 | 7296 ft | 287 kts | 143° |
| 2026-04-19 10:40 | -52.84583 | -70.92426 | 6759 ft | 285 kts | 142° |
| 2026-04-19 10:40 | -52.86021 | -70.90185 | 6197 ft | 283 kts | 140° |
| 2026-04-19 10:40 | -52.87426 | -70.87902 | 5563 ft | 281 kts | 140° |
| 2026-04-19 10:41 | -52.88798 | -70.85636 | 5040 ft | 277 kts | 140° |
| 2026-04-19 10:41 | -52.90153 | -70.83397 | 4544 ft | 274 kts | 140° |
| 2026-04-19 10:41 | -52.91500 | -70.81175 | 4290 ft | 269 kts | 140° |
| 2026-04-19 10:41 | -52.92801 | -70.79028 | 4214 ft | 258 kts | 140° |
| 2026-04-19 10:42 | -52.94050 | -70.76970 | 4129 ft | 248 kts | 140° |
| 2026-04-19 10:42 | -52.95243 | -70.75006 | 4017 ft | 233 kts | 140° |
| 2026-04-19 10:42 | -52.96347 | -70.73186 | 3922 ft | 215 kts | 140° |
| 2026-04-19 10:42 | -52.97374 | -70.71494 | 3852 ft | 201 kts | 141° |
| 2026-04-19 10:43 | -52.98357 | -70.69885 | 3750 ft | 197 kts | 141° |
| 2026-04-19 10:43 | -52.99357 | -70.68347 | 3612 ft | 193 kts | 149° |
| 2026-04-19 10:43 | -53.00509 | -70.67328 | 3330 ft | 184 kts | 167° |
| 2026-04-19 10:43 | -53.01724 | -70.66919 | 3087 ft | 174 kts | 182° |
| 2026-04-19 10:44 | -53.02897 | -70.67059 | 2862 ft | 165 kts | 197° |
| 2026-04-19 10:44 | -53.03951 | -70.67667 | 2646 ft | 157 kts | 211° |
| 2026-04-19 10:44 | -53.04836 | -70.68638 | 2448 ft | 153 kts | 224° |
| 2026-04-19 10:44 | -53.05561 | -70.69940 | 2253 ft | 151 kts | 237° |
| 2026-04-19 10:45 | -53.06062 | -70.71434 | 2053 ft | 149 kts | 249° |
| 2026-04-19 10:45 | -53.06337 | -70.73019 | 1889 ft | 138 kts | 260° |
| 2026-04-19 10:45 | -53.06394 | -70.74588 | 1695 ft | 135 kts | 272° |
| 2026-04-19 10:45 | -53.06235 | -70.76113 | 1517 ft | 134 kts | 285° |
| 2026-04-19 10:46 | -53.05858 | -70.77528 | 1341 ft | 134 kts | 299° |
| 2026-04-19 10:46 | -53.05310 | -70.78780 | 1159 ft | 134 kts | 307° |
| 2026-04-19 10:46 | -53.04609 | -70.79798 | 976 ft | 135 kts | 323° |
| 2026-04-19 10:46 | -53.03862 | -70.80719 | 830 ft | 132 kts | 315° |
| 2026-04-19 10:47 | -53.03243 | -70.81833 | 675 ft | 131 kts | 313° |
| 2026-04-19 10:47 | -53.02538 | -70.82809 | 497 ft | 132 kts | 319° |
| 2026-04-19 10:47 | -53.01861 | -70.83830 | 336 ft | 131 kts | 318° |
| 2026-04-19 10:47 | -53.01168 | -70.84819 | 168 ft | 127 kts | 319° |
| 2026-04-19 10:48 | -53.00595 | -70.85649 | 160 ft | 93 kts | 319° |
| 2026-04-19 10:48 | -53.00197 | -70.86227 | 160 ft | 56 kts | 318° |
| 2026-04-19 10:48 | -53.00098 | -70.86313 | 162 ft | 7 kts | 61° |
| 2026-04-19 10:48 | -53.00106 | -70.86267 | 162 ft | 2 kts | 209° |
| 2026-04-19 10:49 | -53.00140 | -70.86298 | 161 ft | 11 kts | 176° |
| 2026-04-19 10:49 | -53.00224 | -70.86182 | 160 ft | 20 kts | 140° |
| 2026-04-19 10:49 | -53.00268 | -70.85974 | 158 ft | 22 kts | 87° |
| 2026-04-19 10:49 | -53.00264 | -70.85710 | 158 ft | 24 kts | 88° |
| 2026-04-19 10:50 | -53.00262 | -70.85462 | 158 ft | 20 kts | 89° |
| 2026-04-19 10:50 | -53.00260 | -70.85209 | 158 ft | 23 kts | 89° |
| 2026-04-19 10:50 | -53.00254 | -70.84925 | 159 ft | 26 kts | 88° |
| 2026-04-19 10:50 | -53.00286 | -70.84726 | 158 ft | 20 kts | 137° |
| 2026-04-19 10:51 | -53.00381 | -70.84594 | 158 ft | 16 kts | 106° |
| 2026-04-19 10:51 | -53.00384 | -70.84471 | 158 ft | 10 kts | 105° |
| 2026-04-19 10:51 | -53.00421 | -70.84451 | 158 ft | 5 kts | 180° |
| 2026-04-19 10:51 | -53.00447 | -70.84450 | 158 ft | 0 kts | 179° |